sensor_id;sensor_type;location;lat;lon;timestamp;pressure;altitude;pressure_sealevel;temperature;humidity
36190;BME280;22232;50.914;13.858;2023-02-22T00:00:59;97857.78;;;7.98;100.00
36190;BME280;22232;50.914;13.858;2023-02-22T00:03:34;97861.63;;;8.02;100.00
36190;BME280;22232;50.914;13.858;2023-02-22T00:06:04;97855.94;;;7.99;100.00
36190;BME280;22232;50.914;13.858;2023-02-22T00:08:36;97853.69;;;8.02;100.00
36190;BME280;22232;50.914;13.858;2023-02-22T00:11:06;97849.03;;;7.98;100.00
36190;BME280;22232;50.914;13.858;2023-02-22T00:13:36;97855.56;;;7.95;100.00
36190;BME280;22232;50.914;13.858;2023-02-22T00:16:04;97843.53;;;7.93;100.00
36190;BME280;22232;50.914;13.858;2023-02-22T00:18:32;97847.63;;;7.89;100.00
36190;BME280;22232;50.914;13.858;2023-02-22T00:21:00;97845.13;;;7.94;100.00
36190;BME280;22232;50.914;13.858;2023-02-22T00:23:29;97845.38;;;7.92;100.00
36190;BME280;22232;50.914;13.858;2023-02-22T00:25:58;97842.72;;;7.92;100.00
36190;BME280;22232;50.914;13.858;2023-02-22T00:28:26;97841.28;;;7.90;100.00
36190;BME280;22232;50.914;13.858;2023-02-22T00:30:54;97835.59;;;7.86;100.00
36190;BME280;22232;50.914;13.858;2023-02-22T00:33:22;97837.81;;;7.89;100.00
36190;BME280;22232;50.914;13.858;2023-02-22T00:35:50;97834.34;;;7.89;100.00
36190;BME280;22232;50.914;13.858;2023-02-22T00:38:18;97834.34;;;7.89;100.00
36190;BME280;22232;50.914;13.858;2023-02-22T00:40:45;97834.34;;;7.89;100.00
36190;BME280;22232;50.914;13.858;2023-02-22T00:43:14;97835.78;;;7.85;100.00
36190;BME280;22232;50.914;13.858;2023-02-22T00:45:42;97838.25;;;7.86;100.00
36190;BME280;22232;50.914;13.858;2023-02-22T00:48:10;97832.94;;;7.86;100.00
36190;BME280;22232;50.914;13.858;2023-02-22T00:50:38;97835.22;;;7.82;100.00
36190;BME280;22232;50.914;13.858;2023-02-22T00:53:05;97833.78;;;7.80;100.00
36190;BME280;22232;50.914;13.858;2023-02-22T00:55:36;97831.94;;;7.80;100.00
36190;BME280;22232;50.914;13.858;2023-02-22T00:58:04;97836.63;;;7.78;100.00
36190;BME280;22232;50.914;13.858;2023-02-22T01:00:37;97836.25;;;7.75;100.00
36190;BME280;22232;50.914;13.858;2023-02-22T01:03:08;97834.03;;;7.72;100.00
36190;BME280;22232;50.914;13.858;2023-02-22T01:05:37;97836.91;;;7.70;100.00
36190;BME280;22232;50.914;13.858;2023-02-22T01:08:07;97840.94;;;7.73;100.00
36190;BME280;22232;50.914;13.858;2023-02-22T01:10:35;97846.06;;;7.74;100.00
36190;BME280;22232;50.914;13.858;2023-02-22T01:13:05;97845.03;;;7.75;100.00
36190;BME280;22232;50.914;13.858;2023-02-22T01:15:37;97838.72;;;7.76;100.00
36190;BME280;22232;50.914;13.858;2023-02-22T01:18:06;97830.75;;;7.76;100.00
36190;BME280;22232;50.914;13.858;2023-02-22T01:20:33;97835.22;;;7.76;100.00
36190;BME280;22232;50.914;13.858;2023-02-22T01:23:02;97829.91;;;7.82;100.00
36190;BME280;22232;50.914;13.858;2023-02-22T01:25:33;97838.06;;;7.81;100.00
36190;BME280;22232;50.914;13.858;2023-02-22T01:28:04;97831.13;;;7.80;100.00
36190;BME280;22232;50.914;13.858;2023-02-22T01:30:34;97833.19;;;7.78;100.00
36190;BME280;22232;50.914;13.858;2023-02-22T01:33:04;97821.75;;;7.77;100.00
36190;BME280;22232;50.914;13.858;2023-02-22T01:35:35;97822.16;;;7.74;100.00
36190;BME280;22232;50.914;13.858;2023-02-22T01:38:05;97825.03;;;7.73;100.00
36190;BME280;22232;50.914;13.858;2023-02-22T01:40:36;97818.50;;;7.69;100.00
36190;BME280;22232;50.914;13.858;2023-02-22T01:43:15;97820.97;;;7.64;100.00
36190;BME280;22232;50.914;13.858;2023-02-22T01:45:48;97831.59;;;7.64;100.00
36190;BME280;22232;50.914;13.858;2023-02-22T01:51:00;97815.09;;;7.62;100.00
36190;BME280;22232;50.914;13.858;2023-02-22T01:53:32;97827.75;;;7.59;100.00
36190;BME280;22232;50.914;13.858;2023-02-22T01:56:02;97820.00;;;7.58;100.00
36190;BME280;22232;50.914;13.858;2023-02-22T01:58:32;97833.28;;;7.58;100.00
36190;BME280;22232;50.914;13.858;2023-02-22T02:01:01;97831.22;;;7.60;100.00
36190;BME280;22232;50.914;13.858;2023-02-22T02:03:32;97826.72;;;7.61;100.00
36190;BME280;22232;50.914;13.858;2023-02-22T02:06:02;97819.78;;;7.59;100.00
36190;BME280;22232;50.914;13.858;2023-02-22T02:11:15;97820.19;;;7.56;100.00
36190;BME280;22232;50.914;13.858;2023-02-22T02:13:46;97818.78;;;7.54;100.00
36190;BME280;22232;50.914;13.858;2023-02-22T02:16:16;97818.78;;;7.54;100.00
36190;BME280;22232;50.914;13.858;2023-02-22T02:18:44;97810.00;;;7.53;100.00
36190;BME280;22232;50.914;13.858;2023-02-22T02:21:21;97816.94;;;7.54;100.00
36190;BME280;22232;50.914;13.858;2023-02-22T02:34:43;97795.69;;;7.54;100.00
36190;BME280;22232;50.914;13.858;2023-02-22T02:40:38;97788.59;;;7.48;100.00
36190;BME280;22232;50.914;13.858;2023-02-22T02:43:31;97786.34;;;7.45;100.00
36190;BME280;22232;50.914;13.858;2023-02-22T02:46:15;97783.94;;;7.44;100.00
36190;BME280;22232;50.914;13.858;2023-02-22T02:48:54;97790.69;;;7.40;100.00
36190;BME280;22232;50.914;13.858;2023-02-22T02:51:28;97787.44;;;7.38;100.00
36190;BME280;22232;50.914;13.858;2023-02-22T02:53:59;97790.50;;;7.34;100.00
36190;BME280;22232;50.914;13.858;2023-02-22T02:56:28;97784.81;;;7.31;100.00
36190;BME280;22232;50.914;13.858;2023-02-22T02:58:57;97788.47;;;7.30;100.00
36190;BME280;22232;50.914;13.858;2023-02-22T03:07:19;97788.06;;;7.26;100.00
36190;BME280;22232;50.914;13.858;2023-02-22T03:13:18;97781.19;;;7.19;100.00
36190;BME280;22232;50.914;13.858;2023-02-22T03:19:12;97786.06;;;7.15;100.00
36190;BME280;22232;50.914;13.858;2023-02-22T03:22:17;97778.94;;;7.16;100.00
36190;BME280;22232;50.914;13.858;2023-02-22T03:24:52;97780.34;;;7.18;100.00
36190;BME280;22232;50.914;13.858;2023-02-22T03:27:31;97784.63;;;7.19;100.00
36190;BME280;22232;50.914;13.858;2023-02-22T03:30:07;97779.34;;;7.19;100.00
36190;BME280;22232;50.914;13.858;2023-02-22T03:32:42;97781.19;;;7.19;100.00
36190;BME280;22232;50.914;13.858;2023-02-22T03:35:17;97784.41;;;7.21;100.00
36190;BME280;22232;50.914;13.858;2023-02-22T03:37:52;97775.44;;;7.22;100.00
36190;BME280;22232;50.914;13.858;2023-02-22T03:40:27;97782.19;;;7.24;100.00
36190;BME280;22232;50.914;13.858;2023-02-22T03:43:03;97772.38;;;7.25;100.00
36190;BME280;22232;50.914;13.858;2023-02-22T03:45:38;97769.50;;;7.26;100.00
36190;BME280;22232;50.914;13.858;2023-02-22T03:48:19;97770.94;;;7.29;100.00
36190;BME280;22232;50.914;13.858;2023-02-22T03:50:48;97773.56;;;7.29;100.00
36190;BME280;22232;50.914;13.858;2023-02-22T03:53:18;97776.22;;;7.29;100.00
36190;BME280;22232;50.914;13.858;2023-02-22T03:55:49;97766.84;;;7.26;100.00
36190;BME280;22232;50.914;13.858;2023-02-22T03:58:20;97767.06;;;7.25;100.00
36190;BME280;22232;50.914;13.858;2023-02-22T04:00:49;97768.06;;;7.24;100.00
36190;BME280;22232;50.914;13.858;2023-02-22T04:03:21;97778.09;;;7.22;100.00
36190;BME280;22232;50.914;13.858;2023-02-22T04:05:50;97768.50;;;7.21;100.00
36190;BME280;22232;50.914;13.858;2023-02-22T04:08:18;97767.91;;;7.19;100.00
36190;BME280;22232;50.914;13.858;2023-02-22T04:10:47;97768.09;;;7.17;100.00
36190;BME280;22232;50.914;13.858;2023-02-22T04:13:17;97764.66;;;7.17;100.00
36190;BME280;22232;50.914;13.858;2023-02-22T04:15:47;97767.72;;;7.13;100.00
36190;BME280;22232;50.914;13.858;2023-02-22T04:18:15;97762.41;;;7.13;100.00
36190;BME280;22232;50.914;13.858;2023-02-22T04:20:44;97766.53;;;7.09;100.00
36190;BME280;22232;50.914;13.858;2023-02-22T04:23:21;97761.81;;;7.05;100.00
36190;BME280;22232;50.914;13.858;2023-02-22T04:25:48;97762.47;;;7.00;100.00
36190;BME280;22232;50.914;13.858;2023-02-22T04:28:17;97760.84;;;6.93;100.00
36190;BME280;22232;50.914;13.858;2023-02-22T04:30:52;97758.63;;;6.83;100.00
36190;BME280;22232;50.914;13.858;2023-02-22T04:33:21;97758.03;;;6.74;100.00
36190;BME280;22232;50.914;13.858;2023-02-22T04:35:48;97763.34;;;6.68;100.00
36190;BME280;22232;50.914;13.858;2023-02-22T04:38:17;97756.84;;;6.63;100.00
36190;BME280;22232;50.914;13.858;2023-02-22T04:40:47;97758.47;;;6.58;100.00
36190;BME280;22232;50.914;13.858;2023-02-22T04:43:14;97769.06;;;6.51;100.00
36190;BME280;22232;50.914;13.858;2023-02-22T04:45:42;97764.19;;;6.48;100.00
36190;BME280;22232;50.914;13.858;2023-02-22T04:48:10;97758.47;;;6.44;100.00
36190;BME280;22232;50.914;13.858;2023-02-22T04:50:38;97762.16;;;6.43;100.00
36190;BME280;22232;50.914;13.858;2023-02-22T04:53:06;97757.88;;;6.42;100.00
36190;BME280;22232;50.914;13.858;2023-02-22T04:55:36;97763.78;;;6.44;100.00
36190;BME280;22232;50.914;13.858;2023-02-22T04:58:04;97763.38;;;6.48;100.00
36190;BME280;22232;50.914;13.858;2023-02-22T05:00:36;97756.22;;;6.48;100.00
36190;BME280;22232;50.914;13.858;2023-02-22T05:03:05;97757.06;;;6.49;100.00
36190;BME280;22232;50.914;13.858;2023-02-22T05:05:33;97755.41;;;6.48;100.00
36190;BME280;22232;50.914;13.858;2023-02-22T05:08:01;97763.19;;;6.49;100.00
36190;BME280;22232;50.914;13.858;2023-02-22T05:10:28;97753.16;;;6.51;100.00
36190;BME280;22232;50.914;13.858;2023-02-22T05:12:56;97753.59;;;6.55;100.00
36190;BME280;22232;50.914;13.858;2023-02-22T05:15:24;97754.81;;;6.59;100.00
36190;BME280;22232;50.914;13.858;2023-02-22T05:17:52;97755.03;;;6.57;100.00
36190;BME280;22232;50.914;13.858;2023-02-22T05:20:26;97756.63;;;6.58;100.00
36190;BME280;22232;50.914;13.858;2023-02-22T05:22:55;97756.41;;;6.60;100.00
36190;BME280;22232;50.914;13.858;2023-02-22T05:25:24;97756.22;;;6.61;100.00
36190;BME280;22232;50.914;13.858;2023-02-22T05:28:12;97761.53;;;6.61;100.00
36190;BME280;22232;50.914;13.858;2023-02-22T05:30:40;97762.97;;;6.64;100.00
36190;BME280;22232;50.914;13.858;2023-02-22T05:33:09;97758.47;;;6.64;100.00
36190;BME280;22232;50.914;13.858;2023-02-22T05:35:37;97756.44;;;6.66;100.00
36190;BME280;22232;50.914;13.858;2023-02-22T05:38:05;97756.44;;;6.66;100.00
36190;BME280;22232;50.914;13.858;2023-02-22T05:40:33;97754.38;;;6.69;100.00
36190;BME280;22232;50.914;13.858;2023-02-22T05:43:00;97755.19;;;6.69;100.00
36190;BME280;22232;50.914;13.858;2023-02-22T05:48:59;97758.66;;;6.70;100.00
36190;BME280;22232;50.914;13.858;2023-02-22T05:51:26;97760.06;;;6.72;100.00
36190;BME280;22232;50.914;13.858;2023-02-22T05:53:54;97757.00;;;6.75;100.00
36190;BME280;22232;50.914;13.858;2023-02-22T05:56:27;97762.13;;;6.77;100.00
36190;BME280;22232;50.914;13.858;2023-02-22T05:58:57;97753.94;;;6.78;100.00
36190;BME280;22232;50.914;13.858;2023-02-22T06:01:25;97762.31;;;6.82;100.00
36190;BME280;22232;50.914;13.858;2023-02-22T06:03:53;97761.91;;;6.85;100.00
36190;BME280;22232;50.914;13.858;2023-02-22T06:06:20;97768.00;;;6.85;100.00
36190;BME280;22232;50.914;13.858;2023-02-22T06:08:48;97761.69;;;6.86;100.00
36190;BME280;22232;50.914;13.858;2023-02-22T06:11:16;97762.28;;;6.88;100.00
36190;BME280;22232;50.914;13.858;2023-02-22T06:13:52;97762.06;;;6.90;100.00
36190;BME280;22232;50.914;13.858;2023-02-22T06:16:20;97757.38;;;6.92;100.00
36190;BME280;22232;50.914;13.858;2023-02-22T06:18:49;97763.31;;;6.94;100.00
36190;BME280;22232;50.914;13.858;2023-02-22T06:21:16;97767.34;;;6.97;100.00
36190;BME280;22232;50.914;13.858;2023-02-22T06:23:44;97766.94;;;7.00;100.00
36190;BME280;22232;50.914;13.858;2023-02-22T06:26:15;97766.50;;;7.03;100.00
36190;BME280;22232;50.914;13.858;2023-02-22T06:28:43;97770.59;;;7.05;100.00
36190;BME280;22232;50.914;13.858;2023-02-22T06:31:11;97768.31;;;7.09;100.00
36190;BME280;22232;50.914;13.858;2023-02-22T06:33:38;97768.75;;;7.12;100.00
36190;BME280;22232;50.914;13.858;2023-02-22T06:36:06;97769.16;;;7.16;100.00
36190;BME280;22232;50.914;13.858;2023-02-22T06:38:34;97766.25;;;7.18;100.00
36190;BME280;22232;50.914;13.858;2023-02-22T06:41:02;97776.25;;;7.22;100.00
36190;BME280;22232;50.914;13.858;2023-02-22T06:43:29;97768.91;;;7.24;100.00
36190;BME280;22232;50.914;13.858;2023-02-22T06:45:57;97773.81;;;7.27;100.00
36190;BME280;22232;50.914;13.858;2023-02-22T06:48:24;97776.84;;;7.31;100.00
36190;BME280;22232;50.914;13.858;2023-02-22T06:50:52;97784.38;;;7.34;100.00
36190;BME280;22232;50.914;13.858;2023-02-22T06:53:19;97780.28;;;7.38;100.00
36190;BME280;22232;50.914;13.858;2023-02-22T06:55:47;97774.53;;;7.41;100.00
36190;BME280;22232;50.914;13.858;2023-02-22T06:58:14;97781.06;;;7.45;100.00
36190;BME280;22232;50.914;13.858;2023-02-22T07:00:42;97779.81;;;7.48;100.00
36190;BME280;22232;50.914;13.858;2023-02-22T07:03:09;97784.28;;;7.54;100.00
36190;BME280;22232;50.914;13.858;2023-02-22T07:05:37;97783.81;;;7.64;100.00
36190;BME280;22232;50.914;13.858;2023-02-22T07:08:06;97783.81;;;7.70;100.00
36190;BME280;22232;50.914;13.858;2023-02-22T07:10:35;97791.50;;;7.78;100.00
36190;BME280;22232;50.914;13.858;2023-02-22T07:13:04;97788.19;;;7.90;100.00
36190;BME280;22232;50.914;13.858;2023-02-22T07:15:33;97787.69;;;7.99;100.00
36190;BME280;22232;50.914;13.858;2023-02-22T07:18:01;97788.25;;;8.08;100.00
36190;BME280;22232;50.914;13.858;2023-02-22T07:20:30;97790.88;;;8.15;100.00
36190;BME280;22232;50.914;13.858;2023-02-22T07:22:58;97794.06;;;7.98;100.00
36190;BME280;22232;50.914;13.858;2023-02-22T07:25:26;97795.69;;;7.61;100.00
36190;BME280;22232;50.914;13.858;2023-02-22T07:27:54;97791.66;;;7.52;100.00
36190;BME280;22232;50.914;13.858;2023-02-22T07:30:24;97791.81;;;7.57;100.00
36190;BME280;22232;50.914;13.858;2023-02-22T07:32:53;97799.13;;;7.68;100.00
36190;BME280;22232;50.914;13.858;2023-02-22T07:35:33;97804.00;;;7.71;100.00
36190;BME280;22232;50.914;13.858;2023-02-22T07:38:04;97802.38;;;7.70;100.00
36190;BME280;22232;50.914;13.858;2023-02-22T07:40:32;97802.53;;;7.75;100.00
36190;BME280;22232;50.914;13.858;2023-02-22T07:43:11;97802.50;;;7.82;100.00
36190;BME280;22232;50.914;13.858;2023-02-22T07:45:39;97806.56;;;7.91;100.00
36190;BME280;22232;50.914;13.858;2023-02-22T07:48:07;97806.56;;;7.91;100.00
36190;BME280;22232;50.914;13.858;2023-02-22T07:50:35;97808.13;;;7.99;100.00
36190;BME280;22232;50.914;13.858;2023-02-22T07:53:06;97800.16;;;7.99;100.00
36190;BME280;22232;50.914;13.858;2023-02-22T07:55:33;97798.75;;;7.96;100.00
36190;BME280;22232;50.914;13.858;2023-02-22T07:58:03;97799.56;;;7.97;100.00
36190;BME280;22232;50.914;13.858;2023-02-22T08:00:36;97803.06;;;7.91;100.00
36190;BME280;22232;50.914;13.858;2023-02-22T08:03:07;97800.22;;;7.92;100.00
36190;BME280;22232;50.914;13.858;2023-02-22T08:05:40;97802.06;;;7.92;100.00
36190;BME280;22232;50.914;13.858;2023-02-22T08:08:08;97799.22;;;7.87;100.00
36190;BME280;22232;50.914;13.858;2023-02-22T08:10:35;97793.53;;;7.83;100.00
36190;BME280;22232;50.914;13.858;2023-02-22T08:13:04;97798.19;;;7.94;100.00
36190;BME280;22232;50.914;13.858;2023-02-22T08:15:34;97804.84;;;8.03;100.00
36190;BME280;22232;50.914;13.858;2023-02-22T08:18:06;97792.88;;;8.19;100.00
36190;BME280;22232;50.914;13.858;2023-02-22T08:20:36;97802.03;;;8.23;100.00
36190;BME280;22232;50.914;13.858;2023-02-22T08:23:05;97799.22;;;8.18;100.00
36190;BME280;22232;50.914;13.858;2023-02-22T08:25:33;97800.69;;;8.14;100.00
36190;BME280;22232;50.914;13.858;2023-02-22T08:28:04;97802.53;;;8.14;100.00
36190;BME280;22232;50.914;13.858;2023-02-22T08:30:33;97796.22;;;8.08;100.00
36190;BME280;22232;50.914;13.858;2023-02-22T08:33:03;97791.66;;;8.15;100.00
36190;BME280;22232;50.914;13.858;2023-02-22T08:35:31;97791.41;;;8.23;100.00
36190;BME280;22232;50.914;13.858;2023-02-22T08:38:02;97796.25;;;8.33;100.00
36190;BME280;22232;50.914;13.858;2023-02-22T08:40:32;97794.97;;;8.42;100.00
36190;BME280;22232;50.914;13.858;2023-02-22T08:43:00;97796.06;;;8.60;100.00
36190;BME280;22232;50.914;13.858;2023-02-22T08:45:28;97798.03;;;8.71;100.00
36190;BME280;22232;50.914;13.858;2023-02-22T08:47:57;97797.34;;;8.76;100.00
36190;BME280;22232;50.914;13.858;2023-02-22T08:50:28;97794.50;;;8.77;100.00
36190;BME280;22232;50.914;13.858;2023-02-22T08:52:58;97794.94;;;8.92;100.00
36190;BME280;22232;50.914;13.858;2023-02-22T08:55:29;97792.31;;;9.11;100.00
36190;BME280;22232;50.914;13.858;2023-02-22T08:57:59;97786.97;;;9.29;100.00
36190;BME280;22232;50.914;13.858;2023-02-22T09:00:31;97782.72;;;9.40;100.00
36190;BME280;22232;50.914;13.858;2023-02-22T09:03:02;97780.22;;;9.45;100.00
36190;BME280;22232;50.914;13.858;2023-02-22T09:05:30;97784.13;;;9.61;100.00
36190;BME280;22232;50.914;13.858;2023-02-22T09:07:59;97786.22;;;9.71;100.00
36190;BME280;22232;50.914;13.858;2023-02-22T09:10:29;97787.53;;;9.80;100.00
36190;BME280;22232;50.914;13.858;2023-02-22T09:12:58;97792.56;;;9.88;100.00
36190;BME280;22232;50.914;13.858;2023-02-22T09:15:28;97786.22;;;9.89;100.00
36190;BME280;22232;50.914;13.858;2023-02-22T09:17:56;97789.34;;;9.98;100.00
36190;BME280;22232;50.914;13.858;2023-02-22T09:20:24;97782.75;;;10.00;100.00
36190;BME280;22232;50.914;13.858;2023-02-22T09:22:51;97784.31;;;10.08;100.00
36190;BME280;22232;50.914;13.858;2023-02-22T09:25:20;97779.59;;;9.92;100.00
36190;BME280;22232;50.914;13.858;2023-02-22T09:27:49;97787.84;;;9.90;100.00
36190;BME280;22232;50.914;13.858;2023-02-22T09:32:54;97778.88;;;9.84;100.00
36190;BME280;22232;50.914;13.858;2023-02-22T09:35:22;97779.09;;;9.71;100.00
36190;BME280;22232;50.914;13.858;2023-02-22T09:37:59;97771.66;;;9.73;100.00
36190;BME280;22232;50.914;13.858;2023-02-22T09:40:32;97780.47;;;9.74;100.00
36190;BME280;22232;50.914;13.858;2023-02-22T09:51:20;97765.66;;;10.08;100.00
36190;BME280;22232;50.914;13.858;2023-02-22T09:53:49;97766.31;;;10.03;100.00
36190;BME280;22232;50.914;13.858;2023-02-22T09:56:18;97753.72;;;10.10;100.00
36190;BME280;22232;50.914;13.858;2023-02-22T09:58:52;97755.47;;;10.17;100.00
36190;BME280;22232;50.914;13.858;2023-02-22T10:01:38;97757.34;;;10.28;100.00
36190;BME280;22232;50.914;13.858;2023-02-22T10:07:08;97746.84;;;10.45;100.00
36190;BME280;22232;50.914;13.858;2023-02-22T10:09:41;97747.78;;;10.50;100.00
36190;BME280;22232;50.914;13.858;2023-02-22T10:12:30;97748.31;;;10.41;100.00
36190;BME280;22232;50.914;13.858;2023-02-22T10:20:53;97749.25;;;10.58;100.00
36190;BME280;22232;50.914;13.858;2023-02-22T10:23:33;97751.72;;;10.60;100.00
36190;BME280;22232;50.914;13.858;2023-02-22T10:26:42;97749.63;;;10.38;100.00
36190;BME280;22232;50.914;13.858;2023-02-22T10:29:21;97740.16;;;10.12;100.00
36190;BME280;22232;50.914;13.858;2023-02-22T10:31:56;97742.53;;;10.44;100.00
36190;BME280;22232;50.914;13.858;2023-02-22T10:34:27;97743.81;;;10.65;100.00
36190;BME280;22232;50.914;13.858;2023-02-22T10:37:02;97735.66;;;10.83;100.00
36190;BME280;22232;50.914;13.858;2023-02-22T10:39:35;97732.44;;;10.93;100.00
36190;BME280;22232;50.914;13.858;2023-02-22T10:42:06;97730.44;;;11.00;100.00
36190;BME280;22232;50.914;13.858;2023-02-22T10:44:36;97722.88;;;11.09;100.00
36190;BME280;22232;50.914;13.858;2023-02-22T10:47:07;97726.69;;;11.13;100.00
36190;BME280;22232;50.914;13.858;2023-02-22T10:49:50;97728.53;;;11.24;100.00
36190;BME280;22232;50.914;13.858;2023-02-22T10:54:56;97720.44;;;11.07;100.00
36190;BME280;22232;50.914;13.858;2023-02-22T10:57:43;97717.13;;;11.29;100.00
36190;BME280;22232;50.914;13.858;2023-02-22T11:03:00;97716.41;;;11.45;100.00
36190;BME280;22232;50.914;13.858;2023-02-22T11:05:37;97718.38;;;11.38;100.00
36190;BME280;22232;50.914;13.858;2023-02-22T11:11:02;97705.19;;;11.60;100.00
36190;BME280;22232;50.914;13.858;2023-02-22T11:13:36;97715.03;;;11.59;100.00
36190;BME280;22232;50.914;13.858;2023-02-22T11:16:41;97705.75;;;11.33;100.00
36190;BME280;22232;50.914;13.858;2023-02-22T11:19:19;97705.66;;;11.57;100.00
36190;BME280;22232;50.914;13.858;2023-02-22T11:21:49;97696.63;;;11.46;100.00
36190;BME280;22232;50.914;13.858;2023-02-22T11:24:19;97694.50;;;11.31;100.00
36190;BME280;22232;50.914;13.858;2023-02-22T11:26:54;97700.91;;;11.47;100.00
36190;BME280;22232;50.914;13.858;2023-02-22T11:29:33;97696.78;;;11.39;100.00
36190;BME280;22232;50.914;13.858;2023-02-22T11:32:14;97687.09;;;11.50;100.00
36190;BME280;22232;50.914;13.858;2023-02-22T11:34:48;97693.13;;;11.57;100.00
36190;BME280;22232;50.914;13.858;2023-02-22T11:37:35;97689.28;;;11.53;100.00
36190;BME280;22232;50.914;13.858;2023-02-22T11:42:33;97680.16;;;11.20;100.00
36190;BME280;22232;50.914;13.858;2023-02-22T11:45:30;97676.34;;;11.05;100.00
36190;BME280;22232;50.914;13.858;2023-02-22T11:48:02;97675.63;;;10.81;100.00
36190;BME280;22232;50.914;13.858;2023-02-22T11:56:31;97668.16;;;10.94;100.00
36190;BME280;22232;50.914;13.858;2023-02-22T12:02:15;97668.47;;;10.98;100.00
36190;BME280;22232;50.914;13.858;2023-02-22T12:21:43;97657.44;;;11.06;100.00
36190;BME280;22232;50.914;13.858;2023-02-22T12:24:19;97657.13;;;10.91;100.00
36190;BME280;22232;50.914;13.858;2023-02-22T12:27:02;97653.38;;;11.03;100.00
36190;BME280;22232;50.914;13.858;2023-02-22T12:29:55;97660.34;;;11.05;100.00
36190;BME280;22232;50.914;13.858;2023-02-22T12:32:35;97653.28;;;10.98;100.00
36190;BME280;22232;50.914;13.858;2023-02-22T12:35:11;97651.63;;;11.09;100.00
36190;BME280;22232;50.914;13.858;2023-02-22T12:43:31;97650.09;;;11.42;100.00
36190;BME280;22232;50.914;13.858;2023-02-22T12:46:06;97651.44;;;11.28;100.00
36190;BME280;22232;50.914;13.858;2023-02-22T12:51:24;97646.75;;;11.06;100.00
36190;BME280;22232;50.914;13.858;2023-02-22T12:56:56;97650.81;;;10.68;100.00
36190;BME280;22232;50.914;13.858;2023-02-22T12:59:33;97649.03;;;10.86;100.00
36190;BME280;22232;50.914;13.858;2023-02-22T13:04:42;97639.28;;;10.79;100.00
36190;BME280;22232;50.914;13.858;2023-02-22T13:15:29;97632.47;;;10.72;100.00
36190;BME280;22232;50.914;13.858;2023-02-22T13:46:01;97635.38;;;10.70;100.00
36190;BME280;22232;50.914;13.858;2023-02-22T13:54:44;97628.75;;;11.13;100.00
36190;BME280;22232;50.914;13.858;2023-02-22T14:03:01;97633.56;;;11.28;100.00
36190;BME280;22232;50.914;13.858;2023-02-22T14:10:54;97627.94;;;11.41;100.00
36190;BME280;22232;50.914;13.858;2023-02-22T14:13:26;97638.38;;;11.43;100.00
36190;BME280;22232;50.914;13.858;2023-02-22T14:18:35;97634.72;;;11.32;100.00
36190;BME280;22232;50.914;13.858;2023-02-22T14:23:37;97622.56;;;11.24;100.00
36190;BME280;22232;50.914;13.858;2023-02-22T14:28:59;97623.75;;;11.17;100.00
36190;BME280;22232;50.914;13.858;2023-02-22T14:34:40;97616.94;;;11.09;100.00
36190;BME280;22232;50.914;13.858;2023-02-22T14:37:22;97618.53;;;11.10;100.00
36190;BME280;22232;50.914;13.858;2023-02-22T14:39:56;97614.78;;;10.94;100.00
36190;BME280;22232;50.914;13.858;2023-02-22T14:42:36;97607.78;;;11.05;100.00
36190;BME280;22232;50.914;13.858;2023-02-22T14:45:13;97603.97;;;11.01;100.00
36190;BME280;22232;50.914;13.858;2023-02-22T14:47:49;97606.53;;;10.96;100.00
36190;BME280;22232;50.914;13.858;2023-02-22T14:50:36;97600.44;;;10.84;100.00
36190;BME280;22232;50.914;13.858;2023-02-22T14:53:13;97598.72;;;10.77;100.00
36190;BME280;22232;50.914;13.858;2023-02-22T14:55:51;97592.00;;;10.75;100.00
36190;BME280;22232;50.914;13.858;2023-02-22T14:58:23;97596.06;;;10.77;100.00
36190;BME280;22232;50.914;13.858;2023-02-22T15:00:52;97591.59;;;10.54;100.00
36190;BME280;22232;50.914;13.858;2023-02-22T15:03:31;97599.13;;;10.57;100.00
36190;BME280;22232;50.914;13.858;2023-02-22T15:06:14;97591.91;;;10.58;100.00
36190;BME280;22232;50.914;13.858;2023-02-22T15:08:44;97592.38;;;10.55;100.00
36190;BME280;22232;50.914;13.858;2023-02-22T15:11:24;97590.53;;;10.55;100.00
36190;BME280;22232;50.914;13.858;2023-02-22T15:13:53;97594.91;;;10.62;100.00
36190;BME280;22232;50.914;13.858;2023-02-22T15:16:22;97595.84;;;10.67;100.00
36190;BME280;22232;50.914;13.858;2023-02-22T15:18:53;97593.91;;;10.63;100.00
36190;BME280;22232;50.914;13.858;2023-02-22T15:21:26;97595.75;;;10.62;100.00
36190;BME280;22232;50.914;13.858;2023-02-22T15:23:58;97584.53;;;10.48;100.00
36190;BME280;22232;50.914;13.858;2023-02-22T15:26:40;97586.25;;;10.54;100.00
36190;BME280;22232;50.914;13.858;2023-02-22T15:29:37;97585.97;;;10.68;100.00
36190;BME280;22232;50.914;13.858;2023-02-22T15:34:54;97583.22;;;10.63;100.00
36190;BME280;22232;50.914;13.858;2023-02-22T15:37:23;97580.34;;;10.52;100.00
36190;BME280;22232;50.914;13.858;2023-02-22T15:39:52;97582.34;;;10.33;100.00
36190;BME280;22232;50.914;13.858;2023-02-22T15:42:26;97580.72;;;10.32;100.00
36190;BME280;22232;50.914;13.858;2023-02-22T15:44:56;97585.72;;;10.29;100.00
36190;BME280;22232;50.914;13.858;2023-02-22T15:47:26;97588.13;;;10.19;100.00
36190;BME280;22232;50.914;13.858;2023-02-22T15:50:15;97584.09;;;10.04;100.00
36190;BME280;22232;50.914;13.858;2023-02-22T15:52:49;97582.00;;;10.06;100.00
36190;BME280;22232;50.914;13.858;2023-02-22T15:55:39;97581.19;;;9.94;100.00
36190;BME280;22232;50.914;13.858;2023-02-22T15:58:19;97584.44;;;9.96;100.00
36190;BME280;22232;50.914;13.858;2023-02-22T16:01:09;97587.44;;;9.88;100.00
36190;BME280;22232;50.914;13.858;2023-02-22T16:03:39;97580.16;;;9.83;100.00
36190;BME280;22232;50.914;13.858;2023-02-22T16:06:30;97584.09;;;9.81;100.00